Fulks Run, VA (22830)

3:05 AM EST on February 06, 2016 (GMT -0500)
Singers Glen FD | | Change Station
CLOSE
Current Station
Personal Weather Station
Location: Harrisonburg, VA
Elevation: 1621 ft
Nearby Weather Stations

Elev 1621 ft 38.55 °N, 78.92 °W | Updated 6 seconds ago

Clear
Clear
23.2 °F
Feels Like 23 °F
N
0.0
Wind Variable Wind from West
Gusts 1.0 mph

Today
High -- | Low -- °F
--% Chance of Precip.
Yesterday
High -- | Low -- °F
Precip. -- in
Pressure 30.39 in
Visibility 10.0 miles
Clouds Clear
Windchill 23 °F
Dew Point 17 °F
Humidity 76%
Rainfall 0.00 in
Snow Depth Not available.
7:17 AM 5:43 PM
Waning Crescent, 7% visible
METAR KW99 060755Z AUTO 00000KT 10SM CLR M05/M07 A3039 RMK AO2 T10511072
Pressure 30.39 in
Visibility 10.0 miles
Clouds Clear
Windchill 23 °F
Dew Point 17 °F
Humidity 76%
Rainfall 0.00 in
Snow Depth Not available.
7:17 AM 5:43 PM
Waning Crescent, 7% visible
METAR KW99 060755Z AUTO 00000KT 10SM CLR M05/M07 A3039 RMK AO2 T10511072

10-Day Weather Forecast

Almanac

Astronomy

Feb. 06, 2016 Rise Set
Actual Time
Civil Twilight
Nautical Twilight
Astronomical Twilight
Moon
Length of Visible Light
Length of Day
Tomorrow will be .
, % of the Moon is Illuminated

Today's Extremes

State Highs State Lows

Community

WunderPhotos

Upload Photos

1,890,933 photos uploaded!

WunderBlog® & News

Nearby

Air Quality

  Air Quality AQ Index Pollutant
Not available.

Snow Depth

Station Depth Elevation

Earthquake Activity

City Distance Mag. Time & Date
Minimum magnitude displayed is 2.5.

Coastal Water Temperatures

Place Temperature

Stations

Nearby Weather Stations

Station Location Temp. Windchill Dew Point Humidity Wind Precip. Elev Updated Type
                   

Watches & Warnings

There are currently no watches in effect.